createdAt,value
2022-10-13T00:01:59.051Z,98826.16
2022-10-13T00:05:04.644Z,98832.25
2022-10-13T00:08:10.341Z,98824.31
2022-10-13T00:11:36.416Z,98822.06
2022-10-13T00:14:43.035Z,98826.53
2022-10-13T00:17:51.427Z,98822.50
2022-10-13T00:21:00.589Z,98824.72
2022-10-13T00:24:06.337Z,98835.28
2022-10-13T00:27:16.158Z,98837.81
2022-10-13T00:30:22.034Z,98828.06
2022-10-13T00:33:32.401Z,98815.78
2022-10-13T00:36:38.099Z,98824.81
2022-10-13T00:39:43.854Z,98821.53
2022-10-13T00:42:52.067Z,98823.88
2022-10-13T00:45:58.252Z,98815.41
2022-10-13T00:49:12.802Z,98817.50
2022-10-13T00:52:28.662Z,98822.09
2022-10-13T00:55:46.547Z,98818.88
2022-10-13T00:58:59.803Z,98815.28
2022-10-13T01:02:12.197Z,98818.22
2022-10-13T01:05:20.200Z,98815.25
2022-10-13T01:08:27.597Z,98815.91
2022-10-13T01:12:08.491Z,98802.69
2022-10-13T01:15:32.372Z,98797.53
2022-10-13T01:18:52.886Z,98800.31
2022-10-13T01:22:34.199Z,98788.22
2022-10-13T01:26:12.629Z,98784.75
2022-10-13T01:30:07.799Z,98785.19
2022-10-13T01:33:38.482Z,98782.56
2022-10-13T01:37:01.961Z,98783.69
2022-10-13T01:40:19.648Z,98779.63
2022-10-13T01:43:36.707Z,98777.53
2022-10-13T01:46:50.251Z,98773.09
2022-10-13T01:49:59.110Z,98774.56
2022-10-13T01:53:08.323Z,98774.44
2022-10-13T01:56:14.246Z,98770.88
2022-10-13T01:59:20.528Z,98775.81
2022-10-13T02:02:40.275Z,98778.78
2022-10-13T02:06:08.791Z,98773.84
2022-10-13T02:09:30.135Z,98769.31
2022-10-13T02:12:47.198Z,98766.66
2022-10-13T02:15:59.681Z,98766.53
2022-10-13T02:19:16.103Z,98765.38
2022-10-13T02:22:29.321Z,98762.63
2022-10-13T02:25:40.432Z,98773.09
2022-10-13T02:28:49.394Z,98765.31
2022-10-13T02:31:55.575Z,98763.16
2022-10-13T02:35:03.800Z,98765.34
2022-10-13T02:38:09.976Z,98767.38
2022-10-13T02:41:15.481Z,98756.97
2022-10-13T02:44:21.202Z,98746.16
2022-10-13T02:47:34.933Z,98756.13
2022-10-13T02:50:45.249Z,98754.50
2022-10-13T02:53:50.812Z,98759.44
2022-10-13T02:56:56.311Z,98751.91
2022-10-13T03:00:02.150Z,98747.69
2022-10-13T03:03:07.788Z,98748.13
2022-10-13T03:06:16.578Z,98747.13
2022-10-13T03:09:22.279Z,98745.25
2022-10-13T03:12:40.725Z,98737.81
2022-10-13T03:15:46.481Z,98737.50
2022-10-13T03:18:52.213Z,98735.09
2022-10-13T03:22:03.047Z,98729.38
2022-10-13T03:25:16.604Z,98727.78
2022-10-13T03:28:31.566Z,98732.16
2022-10-13T03:31:37.220Z,98718.63
2022-10-13T03:34:42.811Z,98728.03
2022-10-13T03:37:53.219Z,98721.56
2022-10-13T03:41:08.100Z,98719.38
2022-10-13T03:44:16.209Z,98727.75
2022-10-13T03:47:21.749Z,98726.19
2022-10-13T03:50:33.497Z,98715.72
2022-10-13T03:53:43.258Z,98726.16
2022-10-13T03:56:48.789Z,98727.25
2022-10-13T03:59:58.355Z,98728.66
2022-10-13T04:03:05.604Z,98723.25
2022-10-13T04:06:12.693Z,98728.56
2022-10-13T04:09:20.839Z,98727.38
2022-10-13T04:12:27.005Z,98726.53
2022-10-13T04:15:32.895Z,98729.34
2022-10-13T04:18:43.670Z,98729.94
2022-10-13T04:21:50.402Z,98740.34
2022-10-13T04:24:58.581Z,98745.72
2022-10-13T04:28:05.879Z,98752.31
2022-10-13T04:31:15.556Z,98748.59
2022-10-13T04:34:21.230Z,98747.28
2022-10-13T04:37:30.671Z,98734.63
2022-10-13T04:40:45.480Z,98746.91
2022-10-13T04:43:53.009Z,98750.13
2022-10-13T04:46:58.718Z,98740.22
2022-10-13T04:50:16.616Z,98740.31
2022-10-13T04:53:37.656Z,98746.91
2022-10-13T04:56:54.497Z,98745.50
2022-10-13T05:00:02.980Z,98737.25
2022-10-13T05:03:09.814Z,98739.03
2022-10-13T05:06:20.643Z,98737.25
2022-10-13T05:09:27.996Z,98732.56
2022-10-13T05:12:36.421Z,98726.34
2022-10-13T05:15:42.511Z,98724.44
2022-10-13T05:18:53.452Z,98728.50
2022-10-13T05:21:58.997Z,98726.94
2022-10-13T05:25:08.313Z,98720.50
2022-10-13T05:28:17.006Z,98723.00
2022-10-13T05:31:26.532Z,98719.69
2022-10-13T05:34:32.796Z,98725.78
2022-10-13T05:37:42.709Z,98727.47
2022-10-13T05:40:48.838Z,98727.75
2022-10-13T05:44:01.083Z,98723.81
2022-10-13T05:47:07.731Z,98731.31
2022-10-13T05:50:13.789Z,98733.75
2022-10-13T05:53:20.821Z,98733.56
2022-10-13T05:56:35.561Z,98732.75
2022-10-13T05:59:52.594Z,98733.53
2022-10-13T06:03:11.862Z,98730.69
2022-10-13T06:06:22.360Z,98741.78
2022-10-13T06:09:42.740Z,98732.34
2022-10-13T06:12:51.077Z,98732.91
2022-10-13T06:15:59.317Z,98738.41
2022-10-13T06:19:16.161Z,98735.94
2022-10-13T06:22:22.578Z,98736.91
2022-10-13T06:25:32.418Z,98735.25
2022-10-13T06:28:38.812Z,98735.47
2022-10-13T06:31:47.013Z,98732.72
2022-10-13T06:34:52.990Z,98735.06
2022-10-13T06:38:00.139Z,98736.06
2022-10-13T06:41:08.724Z,98735.63
2022-10-13T06:44:15.213Z,98734.69
2022-10-13T06:47:23.614Z,98731.59
2022-10-13T06:50:29.778Z,98727.13
2022-10-13T06:53:36.285Z,98730.03
2022-10-13T06:56:41.904Z,98724.94
2022-10-13T06:59:49.264Z,98733.75
2022-10-13T07:02:57.605Z,98726.22
2022-10-13T07:06:07.636Z,98722.91
2022-10-13T07:09:13.519Z,98718.63
2022-10-13T07:12:19.794Z,98726.44
2022-10-13T07:15:26.102Z,98715.44
2022-10-13T07:18:34.779Z,98721.53
2022-10-13T07:21:40.366Z,98722.13
2022-10-13T07:24:46.426Z,98721.97
2022-10-13T07:27:51.993Z,98722.75
2022-10-13T07:30:57.824Z,98718.75
2022-10-13T07:34:06.887Z,98719.25
2022-10-13T07:37:12.464Z,98718.91
2022-10-13T07:40:18.049Z,98713.06
2022-10-13T07:43:23.693Z,98705.22
2022-10-13T07:46:29.890Z,98701.19
2022-10-13T07:49:38.898Z,98698.00
2022-10-13T07:52:45.127Z,98697.47
2022-10-13T07:55:51.071Z,98702.81
2022-10-13T07:58:57.604Z,98703.28
2022-10-13T08:02:03.691Z,98701.84
2022-10-13T08:05:12.504Z,98696.75
2022-10-13T08:08:18.172Z,98694.84
2022-10-13T08:11:23.855Z,98690.03
2022-10-13T08:14:29.532Z,98688.09
2022-10-13T08:17:35.556Z,98689.84
2022-10-13T08:20:48.855Z,98692.81
2022-10-13T08:23:56.670Z,98684.19
2022-10-13T08:27:02.270Z,98683.91
2022-10-13T08:30:09.679Z,98683.72
2022-10-13T08:33:15.741Z,98675.00
2022-10-13T08:36:28.782Z,98669.09
2022-10-13T08:39:36.305Z,98671.66
2022-10-13T08:42:46.883Z,98672.63
2022-10-13T08:45:58.432Z,98675.94
2022-10-13T08:49:07.901Z,98658.56
2022-10-13T08:52:25.742Z,98668.81
2022-10-13T08:55:39.377Z,98670.16
2022-10-13T08:58:51.612Z,98664.59
2022-10-13T09:02:00.317Z,98669.53
2022-10-13T09:05:12.632Z,98661.09
2022-10-13T09:08:25.746Z,98655.69
2022-10-13T09:11:36.563Z,98659.63
2022-10-13T09:14:44.998Z,98652.19
2022-10-13T09:18:16.620Z,98644.72
2022-10-13T09:21:26.538Z,98647.97
2022-10-13T09:24:35.294Z,98647.56
2022-10-13T09:27:48.191Z,98647.53
2022-10-13T09:31:10.268Z,98645.75
2022-10-13T09:34:30.438Z,98643.31
2022-10-13T09:37:37.222Z,98639.88
2022-10-13T09:40:47.083Z,98634.28
2022-10-13T09:44:13.719Z,98627.81
2022-10-13T09:47:26.766Z,98631.84
2022-10-13T09:50:36.232Z,98630.94
2022-10-13T09:53:44.332Z,98636.09
2022-10-13T09:57:02.776Z,98624.72
2022-10-13T10:00:20.201Z,98622.53
2022-10-13T10:03:35.128Z,98620.59
2022-10-13T10:06:44.072Z,98626.72
2022-10-13T10:09:57.247Z,98624.09
2022-10-13T10:13:14.218Z,98616.38
2022-10-13T10:16:33.711Z,98609.09
2022-10-13T10:20:02.651Z,98604.56
2022-10-13T10:23:17.513Z,98610.50
2022-10-13T10:26:33.087Z,98609.03
2022-10-13T10:29:56.317Z,98602.63
2022-10-13T10:33:12.217Z,98598.72
2022-10-13T10:36:31.209Z,98599.56
2022-10-13T10:39:49.607Z,98592.88
2022-10-13T10:43:35.635Z,98592.19
2022-10-13T10:46:50.279Z,98591.41
2022-10-13T10:50:05.444Z,98592.47
2022-10-13T10:53:25.953Z,98585.88
2022-10-13T10:56:41.295Z,98590.78
2022-10-13T11:00:14.197Z,98581.94
2022-10-13T11:03:43.385Z,98583.38
2022-10-13T11:06:49.120Z,98573.00
2022-10-13T11:10:22.646Z,98574.91
2022-10-13T11:13:28.787Z,98569.63
2022-10-13T11:16:39.117Z,98560.41
2022-10-13T11:19:56.105Z,98561.88
2022-10-13T11:23:36.766Z,98556.31
2022-10-13T11:26:46.921Z,98556.75
2022-10-13T11:30:00.437Z,98551.28
2022-10-13T11:33:27.063Z,98549.16
2022-10-13T11:36:54.557Z,98545.66
2022-10-13T11:40:36.587Z,98541.56
2022-10-13T11:44:05.762Z,98534.72
2022-10-13T11:47:43.216Z,98534.69
2022-10-13T11:51:16.407Z,98525.97
2022-10-13T11:54:39.631Z,98523.66
2022-10-13T11:57:46.081Z,98509.47
2022-10-13T12:01:04.509Z,98517.28
2022-10-13T12:04:18.110Z,98507.75
2022-10-13T12:07:39.974Z,98507.41
2022-10-13T12:10:50.029Z,98516.06
2022-10-13T12:13:57.558Z,98507.56
2022-10-13T12:17:08.606Z,98502.09
2022-10-13T12:20:33.809Z,98501.50
2022-10-13T12:23:41.486Z,98497.38
2022-10-13T12:26:52.005Z,98496.91
2022-10-13T12:30:17.870Z,98494.19
2022-10-13T12:33:37.950Z,98494.00
2022-10-13T12:36:47.859Z,98490.06
2022-10-13T12:39:54.896Z,98487.53
2022-10-13T12:43:10.059Z,98482.88
2022-10-13T12:46:16.389Z,98489.41
2022-10-13T12:49:26.566Z,98487.88
2022-10-13T12:52:32.336Z,98488.06
2022-10-13T12:55:50.460Z,98478.91
2022-10-13T12:58:59.768Z,98466.28
2022-10-13T13:02:20.850Z,98467.31
2022-10-13T13:05:35.968Z,98460.88
2022-10-13T13:08:42.258Z,98456.59
2022-10-13T13:11:48.113Z,98449.31
2022-10-13T13:14:57.787Z,98452.69
2022-10-13T13:18:42.661Z,98452.38
2022-10-13T13:21:48.211Z,98447.00
2022-10-13T13:24:55.020Z,98441.69
2022-10-13T13:28:00.626Z,98444.72
2022-10-13T13:31:14.580Z,98438.56
2022-10-13T13:34:22.401Z,98437.50
2022-10-13T13:37:38.310Z,98432.19
2022-10-13T13:40:44.254Z,98438.50
2022-10-13T13:43:51.434Z,98438.56
2022-10-13T13:46:59.590Z,98441.59
2022-10-13T13:50:20.784Z,98440.38
2022-10-13T13:53:43.223Z,98424.88
2022-10-13T13:56:53.321Z,98418.53
2022-10-13T14:00:09.916Z,98430.34
2022-10-13T14:03:25.708Z,98423.97
2022-10-13T14:06:31.611Z,98420.59
2022-10-13T14:09:37.227Z,98428.91
2022-10-13T14:12:42.792Z,98428.41
2022-10-13T14:15:48.544Z,98425.94
2022-10-13T14:18:57.899Z,98428.28
2022-10-13T14:22:09.329Z,98426.78
2022-10-13T14:25:21.786Z,98427.25
2022-10-13T14:28:29.351Z,98425.22
2022-10-13T14:31:36.390Z,98427.72
2022-10-13T14:34:44.563Z,98435.31
2022-10-13T14:37:50.165Z,98432.38
2022-10-13T14:40:55.921Z,98424.78
2022-10-13T14:44:04.786Z,98423.97
2022-10-13T14:47:10.915Z,98426.06
2022-10-13T14:50:25.158Z,98417.97
2022-10-13T14:53:42.345Z,98422.09
2022-10-13T14:56:50.823Z,98418.19
2022-10-13T15:00:00.901Z,98413.19
2022-10-13T15:03:10.021Z,98414.88
2022-10-13T15:06:22.693Z,98412.38
2022-10-13T15:09:38.970Z,98419.00
2022-10-13T15:12:55.146Z,98410.13
2022-10-13T15:16:04.972Z,98410.28
2022-10-13T15:19:10.813Z,98407.81
2022-10-13T15:22:19.170Z,98412.72
2022-10-13T15:25:30.264Z,98408.81
2022-10-13T15:28:41.083Z,98402.44
2022-10-13T15:31:48.703Z,98402.69
2022-10-13T15:34:55.793Z,98410.31
2022-10-13T15:38:04.077Z,98400.81
2022-10-13T15:41:12.472Z,98397.53
2022-10-13T15:44:21.225Z,98395.03
2022-10-13T15:47:26.859Z,98394.19
2022-10-13T15:50:32.822Z,98398.34
2022-10-13T15:53:41.927Z,98394.16
2022-10-13T15:56:48.244Z,98383.03
2022-10-13T15:59:53.837Z,98390.66
2022-10-13T16:02:59.516Z,98387.94
2022-10-13T16:06:08.718Z,98395.97
2022-10-13T16:09:17.080Z,98398.44
2022-10-13T16:12:24.431Z,98400.44
2022-10-13T16:15:30.667Z,98396.31
2022-10-13T16:18:38.917Z,98405.09
2022-10-13T16:21:46.854Z,98403.03
2022-10-13T16:24:56.965Z,98397.22
2022-10-13T16:28:02.920Z,98398.66
2022-10-13T16:31:12.857Z,98400.47
2022-10-13T16:34:20.923Z,98401.34
2022-10-13T16:37:26.938Z,98403.84
2022-10-13T16:40:35.459Z,98398.44
2022-10-13T16:43:42.099Z,98410.88
2022-10-13T16:46:49.719Z,98403.44
2022-10-13T16:49:55.365Z,98401.63
2022-10-13T16:53:02.876Z,98402.47
2022-10-13T16:56:14.377Z,98398.31
2022-10-13T16:59:20.197Z,98399.78
2022-10-13T17:02:25.982Z,98404.75
2022-10-13T17:05:31.843Z,98404.06
2022-10-13T17:08:38.194Z,98404.75
2022-10-13T17:11:46.631Z,98390.31
2022-10-13T17:14:52.277Z,98402.88
2022-10-13T17:17:58.019Z,98391.50
2022-10-13T17:21:09.137Z,98387.47
2022-10-13T17:24:15.721Z,98390.63
2022-10-13T17:27:26.305Z,98383.97
2022-10-13T17:30:32.043Z,98389.03
2022-10-13T17:33:47.019Z,98396.47
2022-10-13T17:36:56.257Z,98389.56
2022-10-13T17:40:01.910Z,98387.16
2022-10-13T17:43:10.389Z,98388.81
2022-10-13T17:46:37.450Z,98387.16
2022-10-13T17:49:44.578Z,98388.06
2022-10-13T17:52:58.710Z,98396.94
2022-10-13T17:56:04.865Z,98392.94
2022-10-13T17:59:17.160Z,98385.00
2022-10-13T18:02:23.025Z,98381.44
2022-10-13T18:05:28.565Z,98383.94
2022-10-13T18:08:36.141Z,98389.28
2022-10-13T18:11:45.660Z,98394.41
2022-10-13T18:15:00.006Z,98391.72
2022-10-13T18:18:16.943Z,98391.66
2022-10-13T18:21:26.933Z,98393.22
2022-10-13T18:24:32.735Z,98379.50
2022-10-13T18:27:38.310Z,98383.19
2022-10-13T18:30:46.578Z,98379.78
2022-10-13T18:33:53.462Z,98383.28
2022-10-13T18:36:59.130Z,98382.75
2022-10-13T18:40:04.991Z,98380.94
2022-10-13T18:43:13.946Z,98384.50
2022-10-13T18:46:22.671Z,98391.59
2022-10-13T18:49:33.559Z,98386.09
2022-10-13T18:52:39.288Z,98382.28
2022-10-13T18:55:46.278Z,98370.41
2022-10-13T18:58:58.477Z,98367.59
2022-10-13T19:02:27.667Z,98372.72
2022-10-13T19:05:33.291Z,98374.97
2022-10-13T19:08:39.129Z,98379.50
2022-10-13T19:11:45.069Z,98369.06
2022-10-13T19:14:53.331Z,98376.38
2022-10-13T19:18:04.863Z,98376.81
2022-10-13T19:21:13.353Z,98380.00
2022-10-13T19:24:18.942Z,98369.47
2022-10-13T19:27:25.074Z,98366.47
2022-10-13T19:30:30.736Z,98364.41
2022-10-13T19:33:44.281Z,98358.25
2022-10-13T19:36:50.999Z,98362.50
2022-10-13T19:39:56.629Z,98359.53
2022-10-13T19:43:10.005Z,98359.88
2022-10-13T19:46:39.448Z,98359.38
2022-10-13T19:49:47.759Z,98362.84
2022-10-13T19:52:58.945Z,98364.19
2022-10-13T19:56:21.366Z,98359.50
2022-10-13T19:59:27.095Z,98362.22
2022-10-13T20:02:32.687Z,98355.94
2022-10-13T20:05:45.035Z,98357.28
2022-10-13T20:08:51.028Z,98352.09
2022-10-13T20:12:01.862Z,98358.81
2022-10-13T20:15:09.648Z,98359.22
2022-10-13T20:18:15.802Z,98363.06
2022-10-13T20:21:27.529Z,98364.94
2022-10-13T20:24:33.283Z,98355.63
2022-10-13T20:27:39.698Z,98359.28
2022-10-13T20:30:47.631Z,98362.41
2022-10-13T20:33:58.598Z,98363.28
2022-10-13T20:37:12.439Z,98361.97
2022-10-13T20:40:18.370Z,98353.66
2022-10-13T20:43:25.906Z,98349.00
2022-10-13T20:46:31.805Z,98352.81
2022-10-13T20:49:39.770Z,98344.47
2022-10-13T20:52:48.037Z,98354.75
2022-10-13T20:55:59.081Z,98345.22
2022-10-13T20:59:06.149Z,98344.28
2022-10-13T21:02:16.929Z,98349.28
2022-10-13T21:05:22.498Z,98352.94
2022-10-13T21:08:30.697Z,98341.00
2022-10-13T21:11:37.798Z,98340.66
2022-10-13T21:14:43.455Z,98342.31
2022-10-13T21:17:49.629Z,98344.94
2022-10-13T21:20:55.291Z,98348.44
2022-10-13T21:24:07.895Z,98354.94
2022-10-13T21:27:16.214Z,98345.97
2022-10-13T21:30:22.371Z,98348.28
2022-10-13T21:33:27.983Z,98344.44
2022-10-13T21:36:36.887Z,98343.97
2022-10-13T21:39:45.401Z,98349.94
2022-10-13T21:42:51.211Z,98346.84
2022-10-13T21:45:56.811Z,98340.88
2022-10-13T21:49:05.584Z,98331.56
2022-10-13T21:52:11.154Z,98328.66
2022-10-13T21:55:19.448Z,98342.16
2022-10-13T21:58:26.670Z,98342.16
2022-10-13T22:01:32.507Z,98342.72
2022-10-13T22:04:40.303Z,98349.69
2022-10-13T22:07:45.869Z,98344.66
2022-10-13T22:10:54.078Z,98345.50
2022-10-13T22:14:00.788Z,98340.41
2022-10-13T22:17:07.991Z,98341.72
2022-10-13T22:20:13.561Z,98339.75
2022-10-13T22:23:19.140Z,98340.06
2022-10-13T22:26:27.824Z,98329.56
2022-10-13T22:29:33.371Z,98327.41
2022-10-13T22:32:38.959Z,98338.38
2022-10-13T22:35:46.897Z,98331.25
2022-10-13T22:38:58.249Z,98326.41
2022-10-13T22:42:07.145Z,98322.94
2022-10-13T22:45:13.953Z,98319.13
2022-10-13T22:48:19.718Z,98317.41
2022-10-13T22:51:28.688Z,98318.88
2022-10-13T22:54:34.284Z,98315.88
2022-10-13T22:57:42.750Z,98310.00
2022-10-13T23:00:48.352Z,98309.09
2022-10-13T23:03:58.186Z,98300.84
2022-10-13T23:07:03.772Z,98304.69
2022-10-13T23:10:11.399Z,98293.59
2022-10-13T23:13:19.855Z,98304.34
2022-10-13T23:16:31.514Z,98304.06
2022-10-13T23:19:37.426Z,98302.63
2022-10-13T23:22:45.285Z,98298.28
2022-10-13T23:25:50.879Z,98298.47
2022-10-13T23:29:01.645Z,98294.88
2022-10-13T23:32:09.876Z,98290.06
2022-10-13T23:35:15.601Z,98301.50
2022-10-13T23:38:21.677Z,98290.38
2022-10-13T23:41:27.588Z,98290.91
2022-10-13T23:44:35.820Z,98290.03
2022-10-13T23:47:41.412Z,98282.41
2022-10-13T23:50:47.150Z,98285.06
2022-10-13T23:53:53.326Z,98266.63
2022-10-13T23:56:59.001Z,98288.56
